Ellison, Illinois
Current Conditions -  °F | °C
As of 11:55 PM on Monday 26 Jan 2015 (Local Time) from KMQB Reporting Station
Overcast Overcast  
Wind Chill: 29°   Ceiling: 3100
Heat Index: 35°   Visibility: 10mi
Dew Point: 34°   Wind: 7mph
Humidity: 95%   Direction: 310°NW
Pressure: 29.94"   Gusts: NA
Location:  40.7223°N, 90.7308°W
Report Text: KMQB 270555Z AUTO 31006KT 10SM SCT024 BKN031 OVC050 02/01 A2994 RMK AO2 T00180011 10026 21005 400261071
Loading
Personal Weather Stations






























Interactive Weather Map New forecast layout! Learn more

10-Day Weather Forecast

Advertisements
Track Severe Weather on mobile